sensor_id;sensor_type;location;lat;lon;timestamp;pressure;altitude;pressure_sealevel;temperature;humidity
53932;BME280;39844;52.496;13.482;2022-07-29T00:00:52;101689.72;;;17.36;54.54
53932;BME280;39844;52.496;13.482;2022-07-29T00:03:17;101695.97;;;17.34;54.44
53932;BME280;39844;52.496;13.482;2022-07-29T00:05:42;101702.19;;;17.31;54.57
53932;BME280;39844;52.496;13.482;2022-07-29T00:08:08;101691.59;;;17.30;54.87
53932;BME280;39844;52.496;13.482;2022-07-29T00:10:34;101705.78;;;17.27;55.59
53932;BME280;39844;52.496;13.482;2022-07-29T00:13:00;101701.44;;;17.22;55.45
53932;BME280;39844;52.496;13.482;2022-07-29T00:15:26;101697.97;;;17.18;55.50
53932;BME280;39844;52.496;13.482;2022-07-29T00:17:51;101701.50;;;17.17;55.29
53932;BME280;39844;52.496;13.482;2022-07-29T00:20:16;101704.22;;;17.14;55.59
53932;BME280;39844;52.496;13.482;2022-07-29T00:22:42;101692.75;;;17.12;55.62
53932;BME280;39844;52.496;13.482;2022-07-29T00:25:08;101695.44;;;17.09;55.84
53932;BME280;39844;52.496;13.482;2022-07-29T00:27:34;101691.06;;;17.06;56.47
53932;BME280;39844;52.496;13.482;2022-07-29T00:30:00;101686.69;;;17.04;56.56
53932;BME280;39844;52.496;13.482;2022-07-29T00:32:25;101689.38;;;17.01;56.71
53932;BME280;39844;52.496;13.482;2022-07-29T00:34:50;101684.13;;;16.96;56.78
53932;BME280;39844;52.496;13.482;2022-07-29T00:37:35;101687.72;;;16.94;56.86
53932;BME280;39844;52.496;13.482;2022-07-29T00:40:00;101687.75;;;16.92;56.72
53932;BME280;39844;52.496;13.482;2022-07-29T00:42:25;101696.59;;;16.91;56.91
53932;BME280;39844;52.496;13.482;2022-07-29T00:44:51;101686.91;;;16.90;56.89
53932;BME280;39844;52.496;13.482;2022-07-29T00:47:16;101682.53;;;16.88;56.96
53932;BME280;39844;52.496;13.482;2022-07-29T00:49:42;101687.81;;;16.86;57.28
53932;BME280;39844;52.496;13.482;2022-07-29T00:52:08;101686.97;;;16.84;57.64
53932;BME280;39844;52.496;13.482;2022-07-29T00:54:34;101682.63;;;16.80;57.39
53932;BME280;39844;52.496;13.482;2022-07-29T00:57:00;101682.63;;;16.79;57.61
53932;BME280;39844;52.496;13.482;2022-07-29T00:59:27;101672.94;;;16.76;57.84
53932;BME280;39844;52.496;13.482;2022-07-29T01:01:53;101670.31;;;16.75;58.35
53932;BME280;39844;52.496;13.482;2022-07-29T01:04:20;101671.25;;;16.72;58.22
53932;BME280;39844;52.496;13.482;2022-07-29T01:06:47;101672.16;;;16.70;58.19
53932;BME280;39844;52.496;13.482;2022-07-29T01:09:14;101662.47;;;16.67;58.27
53932;BME280;39844;52.496;13.482;2022-07-29T01:11:40;101665.13;;;16.66;58.41
53932;BME280;39844;52.496;13.482;2022-07-29T01:14:06;101661.63;;;16.64;58.46
53932;BME280;39844;52.496;13.482;2022-07-29T01:16:33;101669.63;;;16.61;58.54
53932;BME280;39844;52.496;13.482;2022-07-29T01:19:17;101662.59;;;16.58;58.88
53932;BME280;39844;52.496;13.482;2022-07-29T01:21:51;101659.97;;;16.57;58.67
53932;BME280;39844;52.496;13.482;2022-07-29T01:29:51;101652.97;;;16.50;59.73
53932;BME280;39844;52.496;13.482;2022-07-29T01:32:20;101646.81;;;16.46;59.64
53932;BME280;39844;52.496;13.482;2022-07-29T01:34:50;101641.56;;;16.43;59.80
53932;BME280;39844;52.496;13.482;2022-07-29T01:37:39;101638.09;;;16.39;59.82
53932;BME280;39844;52.496;13.482;2022-07-29T01:40:14;101630.13;;;16.38;59.83
53932;BME280;39844;52.496;13.482;2022-07-29T01:42:43;101624.88;;;16.36;59.95
53932;BME280;39844;52.496;13.482;2022-07-29T01:45:15;101616.06;;;16.34;59.98
53932;BME280;39844;52.496;13.482;2022-07-29T01:47:46;101596.66;;;16.32;60.30
53932;BME280;39844;52.496;13.482;2022-07-29T01:50:14;101596.69;;;16.31;60.34
53932;BME280;39844;52.496;13.482;2022-07-29T01:53:08;101584.34;;;16.28;60.09
53932;BME280;39844;52.496;13.482;2022-07-29T01:55:36;101593.19;;;16.29;60.25
53932;BME280;39844;52.496;13.482;2022-07-29T01:58:04;101587.88;;;16.27;60.28
53932;BME280;39844;52.496;13.482;2022-07-29T02:00:32;101590.59;;;16.24;60.53
53932;BME280;39844;52.496;13.482;2022-07-29T02:03:00;101582.66;;;16.24;60.36
53932;BME280;39844;52.496;13.482;2022-07-29T02:05:30;101587.06;;;16.22;60.33
53932;BME280;39844;52.496;13.482;2022-07-29T02:07:58;101587.09;;;16.21;60.63
53932;BME280;39844;52.496;13.482;2022-07-29T02:10:27;101587.13;;;16.19;60.42
53932;BME280;39844;52.496;13.482;2022-07-29T02:12:56;101574.78;;;16.18;60.85
53932;BME280;39844;52.496;13.482;2022-07-29T02:15:27;101588.91;;;16.17;60.54
53932;BME280;39844;52.496;13.482;2022-07-29T02:18:02;101581.88;;;16.15;61.03
53932;BME280;39844;52.496;13.482;2022-07-29T02:20:30;101591.63;;;16.14;61.16
53932;BME280;39844;52.496;13.482;2022-07-29T02:22:58;101592.50;;;16.13;60.89
53932;BME280;39844;52.496;13.482;2022-07-29T02:25:25;101591.66;;;16.11;60.96
53932;BME280;39844;52.496;13.482;2022-07-29T02:27:52;101588.16;;;16.09;61.18
53932;BME280;39844;52.496;13.482;2022-07-29T02:30:19;101591.69;;;16.08;61.09
53932;BME280;39844;52.496;13.482;2022-07-29T02:32:47;101589.91;;;16.07;61.29
53932;BME280;39844;52.496;13.482;2022-07-29T02:35:15;101599.66;;;16.07;61.56
53932;BME280;39844;52.496;13.482;2022-07-29T02:37:43;101599.66;;;16.07;61.50
53932;BME280;39844;52.496;13.482;2022-07-29T02:40:11;101600.53;;;16.04;61.52
53932;BME280;39844;52.496;13.482;2022-07-29T02:42:38;101600.56;;;16.03;61.26
53932;BME280;39844;52.496;13.482;2022-07-29T02:45:06;101599.69;;;16.02;61.97
53932;BME280;39844;52.496;13.482;2022-07-29T02:47:50;101598.84;;;16.00;61.39
53932;BME280;39844;52.496;13.482;2022-07-29T02:50:35;101597.06;;;15.99;61.76
53932;BME280;39844;52.496;13.482;2022-07-29T02:53:07;101599.72;;;15.99;61.62
53932;BME280;39844;52.496;13.482;2022-07-29T03:00:59;101600.63;;;15.98;61.99
53932;BME280;39844;52.496;13.482;2022-07-29T03:03:29;101597.09;;;15.98;61.88
53932;BME280;39844;52.496;13.482;2022-07-29T03:05:56;101602.41;;;15.98;61.89
53932;BME280;39844;52.496;13.482;2022-07-29T03:08:23;101608.56;;;15.98;62.02
53932;BME280;39844;52.496;13.482;2022-07-29T03:10:49;101598.88;;;15.97;61.73
53932;BME280;39844;52.496;13.482;2022-07-29T03:13:16;101595.34;;;15.98;62.03
53932;BME280;39844;52.496;13.482;2022-07-29T03:15:43;101606.81;;;15.99;61.66
53932;BME280;39844;52.496;13.482;2022-07-29T03:18:10;101611.19;;;16.01;62.19
53932;BME280;39844;52.496;13.482;2022-07-29T03:20:37;101594.44;;;16.01;62.55
53932;BME280;39844;52.496;13.482;2022-07-29T03:23:02;101597.97;;;16.01;63.01
53932;BME280;39844;52.496;13.482;2022-07-29T03:25:28;101592.66;;;16.00;61.61
53932;BME280;39844;52.496;13.482;2022-07-29T03:27:53;101587.38;;;16.00;61.66
53932;BME280;39844;52.496;13.482;2022-07-29T03:30:19;101588.25;;;16.00;61.54
53932;BME280;39844;52.496;13.482;2022-07-29T03:32:44;101589.13;;;16.01;61.74
53932;BME280;39844;52.496;13.482;2022-07-29T03:35:09;101584.72;;;16.01;62.20
53932;BME280;39844;52.496;13.482;2022-07-29T03:37:35;101584.72;;;16.01;61.72
53932;BME280;39844;52.496;13.482;2022-07-29T03:40:05;101590.00;;;16.01;62.08
53932;BME280;39844;52.496;13.482;2022-07-29T03:42:33;101583.84;;;16.01;61.96
53932;BME280;39844;52.496;13.482;2022-07-29T03:45:04;101581.16;;;16.02;61.78
53932;BME280;39844;52.496;13.482;2022-07-29T03:47:31;101574.13;;;16.01;61.52
53932;BME280;39844;52.496;13.482;2022-07-29T03:50:01;101570.59;;;15.99;61.25
53932;BME280;39844;52.496;13.482;2022-07-29T03:52:27;101570.59;;;16.01;61.72
53932;BME280;39844;52.496;13.482;2022-07-29T03:54:53;101570.56;;;16.02;61.89
53932;BME280;39844;52.496;13.482;2022-07-29T03:57:20;101568.81;;;16.01;61.65
53932;BME280;39844;52.496;13.482;2022-07-29T03:59:48;101574.13;;;16.01;62.02
53932;BME280;39844;52.496;13.482;2022-07-29T04:02:14;101574.13;;;16.01;61.93
53932;BME280;39844;52.496;13.482;2022-07-29T04:04:39;101574.97;;;16.02;61.54
53932;BME280;39844;52.496;13.482;2022-07-29T04:07:05;101580.25;;;16.03;61.76
53932;BME280;39844;52.496;13.482;2022-07-29T04:09:30;101586.41;;;16.05;61.39
53932;BME280;39844;52.496;13.482;2022-07-29T04:11:55;101574.94;;;16.06;61.21
53932;BME280;39844;52.496;13.482;2022-07-29T04:14:21;101579.28;;;16.10;61.60
53932;BME280;39844;52.496;13.482;2022-07-29T04:16:47;101577.47;;;16.12;61.66
53932;BME280;39844;52.496;13.482;2022-07-29T04:19:12;101581.88;;;16.16;61.61
53932;BME280;39844;52.496;13.482;2022-07-29T04:21:39;101591.53;;;16.17;61.32
53932;BME280;39844;52.496;13.482;2022-07-29T04:24:05;101590.63;;;16.20;61.07
53932;BME280;39844;52.496;13.482;2022-07-29T04:26:30;101596.78;;;16.23;61.20
53932;BME280;39844;52.496;13.482;2022-07-29T04:28:55;101588.78;;;16.25;61.07
53932;BME280;39844;52.496;13.482;2022-07-29T04:31:21;101585.25;;;16.26;61.07
53932;BME280;39844;52.496;13.482;2022-07-29T04:33:46;101588.75;;;16.29;61.25
53932;BME280;39844;52.496;13.482;2022-07-29T04:36:11;101598.44;;;16.30;60.70
53932;BME280;39844;52.496;13.482;2022-07-29T04:38:37;101589.56;;;16.34;60.90
53932;BME280;39844;52.496;13.482;2022-07-29T04:41:03;101589.53;;;16.36;61.04
53932;BME280;39844;52.496;13.482;2022-07-29T04:43:28;101587.75;;;16.38;61.04
53932;BME280;39844;52.496;13.482;2022-07-29T04:45:54;101585.09;;;16.39;61.02
53932;BME280;39844;52.496;13.482;2022-07-29T04:48:20;101589.47;;;16.40;60.57
53932;BME280;39844;52.496;13.482;2022-07-29T04:50:45;101586.81;;;16.40;60.59
53932;BME280;39844;52.496;13.482;2022-07-29T04:53:10;101596.53;;;16.41;60.27
53932;BME280;39844;52.496;13.482;2022-07-29T04:55:36;101593.84;;;16.44;60.46
53932;BME280;39844;52.496;13.482;2022-07-29T04:58:01;101593.78;;;16.48;60.88
53932;BME280;39844;52.496;13.482;2022-07-29T05:00:27;101592.84;;;16.52;60.66
53932;BME280;39844;52.496;13.482;2022-07-29T05:02:52;101598.16;;;16.55;60.09
53932;BME280;39844;52.496;13.482;2022-07-29T05:05:17;101590.19;;;16.55;60.00
53932;BME280;39844;52.496;13.482;2022-07-29T05:07:43;101599.88;;;16.56;59.89
53932;BME280;39844;52.496;13.482;2022-07-29T05:10:09;101596.31;;;16.58;60.29
53932;BME280;39844;52.496;13.482;2022-07-29T05:12:34;101588.28;;;16.64;60.25
53932;BME280;39844;52.496;13.482;2022-07-29T05:14:59;101593.53;;;16.67;59.60
53932;BME280;39844;52.496;13.482;2022-07-29T05:17:25;101591.69;;;16.72;59.80
53932;BME280;39844;52.496;13.482;2022-07-29T05:19:50;101584.50;;;16.79;60.07
53932;BME280;39844;52.496;13.482;2022-07-29T05:22:18;101590.63;;;16.85;59.59
53932;BME280;39844;52.496;13.482;2022-07-29T05:24:43;101596.72;;;16.89;59.34
53932;BME280;39844;52.496;13.482;2022-07-29T05:27:08;101586.88;;;16.97;59.85
53932;BME280;39844;52.496;13.482;2022-07-29T05:29:34;101585.91;;;17.02;59.85
53932;BME280;39844;52.496;13.482;2022-07-29T05:31:59;101590.25;;;17.06;59.23
53932;BME280;39844;52.496;13.482;2022-07-29T05:34:25;101591.09;;;17.08;58.54
53932;BME280;39844;52.496;13.482;2022-07-29T05:36:50;101586.66;;;17.11;58.65
53932;BME280;39844;52.496;13.482;2022-07-29T05:39:16;101574.19;;;17.14;58.67
53932;BME280;39844;52.496;13.482;2022-07-29T05:41:41;101576.75;;;17.19;58.69
53932;BME280;39844;52.496;13.482;2022-07-29T05:44:06;101572.34;;;17.19;58.29
53932;BME280;39844;52.496;13.482;2022-07-29T05:46:32;101575.88;;;17.21;58.39
53932;BME280;39844;52.496;13.482;2022-07-29T05:48:57;101573.13;;;17.24;58.55
53932;BME280;39844;52.496;13.482;2022-07-29T05:51:22;101579.31;;;17.26;58.50
53932;BME280;39844;52.496;13.482;2022-07-29T05:53:48;101586.31;;;17.30;58.54
53932;BME280;39844;52.496;13.482;2022-07-29T05:56:13;101579.13;;;17.35;58.33
53932;BME280;39844;52.496;13.482;2022-07-29T05:58:38;101580.81;;;17.39;58.01
53932;BME280;39844;52.496;13.482;2022-07-29T06:01:04;101577.22;;;17.43;57.63
53932;BME280;39844;52.496;13.482;2022-07-29T06:03:29;101577.97;;;17.50;58.07
53932;BME280;39844;52.496;13.482;2022-07-29T06:05:55;101584.00;;;17.59;58.08
53932;BME280;39844;52.496;13.482;2022-07-29T06:08:20;101582.94;;;17.69;57.86
53932;BME280;39844;52.496;13.482;2022-07-29T06:10:46;101596.03;;;17.79;56.62
53932;BME280;39844;52.496;13.482;2022-07-29T06:13:12;101581.72;;;17.86;56.71
53932;BME280;39844;52.496;13.482;2022-07-29T06:15:37;101592.09;;;17.98;56.74
53932;BME280;39844;52.496;13.482;2022-07-29T06:18:03;101588.38;;;18.06;55.63
53932;BME280;39844;52.496;13.482;2022-07-29T06:20:29;101581.06;;;18.17;56.08
53932;BME280;39844;52.496;13.482;2022-07-29T06:22:55;101578.25;;;18.25;55.52
53932;BME280;39844;52.496;13.482;2022-07-29T06:25:21;101571.75;;;18.38;55.74
53932;BME280;39844;52.496;13.482;2022-07-29T06:27:46;101581.84;;;18.62;55.91
53932;BME280;39844;52.496;13.482;2022-07-29T06:30:12;101580.63;;;18.77;55.10
53932;BME280;39844;52.496;13.482;2022-07-29T06:32:38;101581.13;;;18.92;54.51
53932;BME280;39844;52.496;13.482;2022-07-29T06:35:03;101577.25;;;19.06;54.77
53932;BME280;39844;52.496;13.482;2022-07-29T06:37:28;101569.97;;;19.12;53.63
53932;BME280;39844;52.496;13.482;2022-07-29T06:39:54;101575.19;;;19.17;53.65
53932;BME280;39844;52.496;13.482;2022-07-29T06:42:42;101573.19;;;19.25;53.47
53932;BME280;39844;52.496;13.482;2022-07-29T06:45:08;101570.44;;;19.29;53.76
53932;BME280;39844;52.496;13.482;2022-07-29T06:47:33;101573.88;;;19.33;53.34
53932;BME280;39844;52.496;13.482;2022-07-29T06:49:59;101573.69;;;19.42;53.55
53932;BME280;39844;52.496;13.482;2022-07-29T06:52:25;101577.00;;;19.50;53.56
53932;BME280;39844;52.496;13.482;2022-07-29T06:54:50;101578.59;;;19.55;53.23
53932;BME280;39844;52.496;13.482;2022-07-29T06:57:16;101573.34;;;19.54;52.10
53932;BME280;39844;52.496;13.482;2022-07-29T06:59:41;101570.69;;;19.54;51.95
53932;BME280;39844;52.496;13.482;2022-07-29T07:02:06;101583.84;;;19.59;52.34
53932;BME280;39844;52.496;13.482;2022-07-29T07:04:32;101583.72;;;19.63;53.10
53932;BME280;39844;52.496;13.482;2022-07-29T07:06:57;101588.94;;;19.68;53.15
53932;BME280;39844;52.496;13.482;2022-07-29T07:09:24;101594.22;;;19.69;52.82
53932;BME280;39844;52.496;13.482;2022-07-29T07:11:49;101595.06;;;19.71;52.34
53932;BME280;39844;52.496;13.482;2022-07-29T07:14:14;101590.56;;;19.73;51.91
53932;BME280;39844;52.496;13.482;2022-07-29T07:16:40;101598.31;;;19.81;53.01
53932;BME280;39844;52.496;13.482;2022-07-29T07:19:05;101589.13;;;19.92;52.36
53932;BME280;39844;52.496;13.482;2022-07-29T07:21:32;101595.94;;;20.02;51.93
53932;BME280;39844;52.496;13.482;2022-07-29T07:23:58;101596.47;;;20.15;51.93
53932;BME280;39844;52.496;13.482;2022-07-29T07:26:24;101589.13;;;20.22;52.26
53932;BME280;39844;52.496;13.482;2022-07-29T07:28:50;101580.19;;;20.26;51.94
53932;BME280;39844;52.496;13.482;2022-07-29T07:31:15;101581.09;;;20.25;51.29
53932;BME280;39844;52.496;13.482;2022-07-29T07:33:41;101586.41;;;20.25;50.82
53932;BME280;39844;52.496;13.482;2022-07-29T07:36:06;101581.88;;;20.28;50.56
53932;BME280;39844;52.496;13.482;2022-07-29T07:38:31;101578.41;;;20.26;50.14
53932;BME280;39844;52.496;13.482;2022-07-29T07:40:58;101582.78;;;20.27;50.54
53932;BME280;39844;52.496;13.482;2022-07-29T07:43:23;101578.28;;;20.29;50.42
53932;BME280;39844;52.496;13.482;2022-07-29T07:45:49;101572.84;;;20.32;50.01
53932;BME280;39844;52.496;13.482;2022-07-29T07:48:14;101571.88;;;20.36;50.06
53932;BME280;39844;52.496;13.482;2022-07-29T07:50:39;101575.13;;;20.44;50.64
53932;BME280;39844;52.496;13.482;2022-07-29T07:53:04;101568.72;;;20.51;49.66
53932;BME280;39844;52.496;13.482;2022-07-29T07:55:30;101570.16;;;20.61;49.68
53932;BME280;39844;52.496;13.482;2022-07-29T07:57:55;101566.28;;;20.71;49.83
53932;BME280;39844;52.496;13.482;2022-07-29T08:00:21;101570.34;;;20.83;49.67
53932;BME280;39844;52.496;13.482;2022-07-29T08:02:46;101570.06;;;20.92;48.36
53932;BME280;39844;52.496;13.482;2022-07-29T08:05:13;101560.94;;;20.98;48.06
53932;BME280;39844;52.496;13.482;2022-07-29T08:07:45;101565.16;;;21.06;48.42
53932;BME280;39844;52.496;13.482;2022-07-29T08:10:12;101554.97;;;21.17;48.04
53932;BME280;39844;52.496;13.482;2022-07-29T08:12:37;101562.50;;;21.31;48.25
53932;BME280;39844;52.496;13.482;2022-07-29T08:15:03;101562.91;;;21.45;47.96
53932;BME280;39844;52.496;13.482;2022-07-29T08:17:28;101553.56;;;21.57;46.66
53932;BME280;39844;52.496;13.482;2022-07-29T08:19:54;101553.38;;;21.63;46.37
53932;BME280;39844;52.496;13.482;2022-07-29T08:22:19;101560.13;;;21.73;46.14
53932;BME280;39844;52.496;13.482;2022-07-29T08:24:45;101560.75;;;21.79;45.46
53932;BME280;39844;52.496;13.482;2022-07-29T08:27:18;101550.66;;;21.89;45.15
53932;BME280;39844;52.496;13.482;2022-07-29T08:29:44;101557.59;;;21.93;45.04
53932;BME280;39844;52.496;13.482;2022-07-29T08:32:10;101561.84;;;21.98;44.86
53932;BME280;39844;52.496;13.482;2022-07-29T08:34:35;101558.00;;;22.06;44.61
53932;BME280;39844;52.496;13.482;2022-07-29T08:37:00;101555.81;;;22.17;45.46
53932;BME280;39844;52.496;13.482;2022-07-29T08:39:26;101547.41;;;22.26;44.59
53932;BME280;39844;52.496;13.482;2022-07-29T08:41:52;101545.25;;;22.35;44.41
53932;BME280;39844;52.496;13.482;2022-07-29T08:44:18;101541.53;;;22.39;43.59
53932;BME280;39844;52.496;13.482;2022-07-29T08:46:44;101543.03;;;22.46;43.67
53932;BME280;39844;52.496;13.482;2022-07-29T08:49:09;101539.47;;;22.46;43.06
53932;BME280;39844;52.496;13.482;2022-07-29T08:51:36;101545.31;;;22.55;43.56
53932;BME280;39844;52.496;13.482;2022-07-29T08:54:02;101543.06;;;22.68;42.76
53932;BME280;39844;52.496;13.482;2022-07-29T08:56:28;101537.34;;;22.77;42.55
53932;BME280;39844;52.496;13.482;2022-07-29T08:58:54;101533.34;;;22.87;42.14
53932;BME280;39844;52.496;13.482;2022-07-29T09:01:24;101537.31;;;22.99;42.31
53932;BME280;39844;52.496;13.482;2022-07-29T09:03:55;101530.50;;;23.12;42.17
53932;BME280;39844;52.496;13.482;2022-07-29T09:06:21;101531.16;;;23.17;41.15
53932;BME280;39844;52.496;13.482;2022-07-29T09:08:47;101536.41;;;23.20;41.00
53932;BME280;39844;52.496;13.482;2022-07-29T09:11:13;101536.84;;;23.29;40.99
53932;BME280;39844;52.496;13.482;2022-07-29T09:13:39;101541.09;;;23.35;40.65
53932;BME280;39844;52.496;13.482;2022-07-29T09:16:05;101530.28;;;23.38;40.66
53932;BME280;39844;52.496;13.482;2022-07-29T09:21:02;101518.88;;;23.53;40.34
53932;BME280;39844;52.496;13.482;2022-07-29T09:24:26;101535.19;;;23.67;40.33
53932;BME280;39844;52.496;13.482;2022-07-29T09:26:52;101530.22;;;23.78;40.21
53932;BME280;39844;52.496;13.482;2022-07-29T09:29:19;101526.03;;;23.92;39.75
53932;BME280;39844;52.496;13.482;2022-07-29T09:31:48;101523.78;;;24.01;39.54
53932;BME280;39844;52.496;13.482;2022-07-29T09:34:22;101523.25;;;24.13;39.24
53932;BME280;39844;52.496;13.482;2022-07-29T09:36:49;101527.81;;;24.30;38.86
53932;BME280;39844;52.496;13.482;2022-07-29T09:39:17;101525.66;;;24.38;38.59
53932;BME280;39844;52.496;13.482;2022-07-29T09:41:53;101520.94;;;24.43;38.17
53932;BME280;39844;52.496;13.482;2022-07-29T09:44:20;101529.41;;;24.52;38.17
53932;BME280;39844;52.496;13.482;2022-07-29T09:47:06;101518.28;;;24.60;37.85
53932;BME280;39844;52.496;13.482;2022-07-29T09:49:36;101522.09;;;24.73;37.43
53932;BME280;39844;52.496;13.482;2022-07-29T09:52:14;101508.81;;;24.70;36.16
53932;BME280;39844;52.496;13.482;2022-07-29T09:54:40;101510.38;;;24.74;36.40
53932;BME280;39844;52.496;13.482;2022-07-29T09:57:07;101512.34;;;24.89;36.78
53932;BME280;39844;52.496;13.482;2022-07-29T09:59:34;101511.88;;;24.98;35.80
53932;BME280;39844;52.496;13.482;2022-07-29T10:02:00;101507.84;;;25.07;35.94
53932;BME280;39844;52.496;13.482;2022-07-29T10:04:42;101508.06;;;25.20;34.65
53932;BME280;39844;52.496;13.482;2022-07-29T10:07:08;101502.53;;;25.57;34.19
53932;BME280;39844;52.496;13.482;2022-07-29T10:09:34;101500.06;;;26.18;33.54
53932;BME280;39844;52.496;13.482;2022-07-29T10:12:03;101490.25;;;26.79;32.50
53932;BME280;39844;52.496;13.482;2022-07-29T10:14:32;101492.16;;;27.21;31.66
53932;BME280;39844;52.496;13.482;2022-07-29T10:16:59;101485.31;;;27.45;31.01
53932;BME280;39844;52.496;13.482;2022-07-29T10:19:27;101488.00;;;27.59;31.52
53932;BME280;39844;52.496;13.482;2022-07-29T10:21:53;101480.88;;;27.87;30.57
53932;BME280;39844;52.496;13.482;2022-07-29T10:24:19;101487.75;;;28.06;30.49
53932;BME280;39844;52.496;13.482;2022-07-29T10:26:46;101487.81;;;28.19;29.02
53932;BME280;39844;52.496;13.482;2022-07-29T10:29:13;101490.00;;;28.27;29.68
53932;BME280;39844;52.496;13.482;2022-07-29T10:31:49;101480.84;;;28.15;29.69
53932;BME280;39844;52.496;13.482;2022-07-29T10:37:59;101479.72;;;27.91;29.84
53932;BME280;39844;52.496;13.482;2022-07-29T10:43:43;101476.03;;;27.92;29.20
53932;BME280;39844;52.496;13.482;2022-07-29T10:46:12;101473.47;;;27.76;29.64
53932;BME280;39844;52.496;13.482;2022-07-29T10:49:14;101484.34;;;27.75;30.54
53932;BME280;39844;52.496;13.482;2022-07-29T10:52:03;101475.81;;;28.23;30.34
53932;BME280;39844;52.496;13.482;2022-07-29T10:54:46;101466.94;;;29.14;29.25
53932;BME280;39844;52.496;13.482;2022-07-29T10:57:24;101473.06;;;29.80;27.67
53932;BME280;39844;52.496;13.482;2022-07-29T11:05:22;101459.50;;;30.77;26.30
53932;BME280;39844;52.496;13.482;2022-07-29T11:10:42;101463.81;;;30.44;26.43
53932;BME280;39844;52.496;13.482;2022-07-29T11:13:07;101458.56;;;29.81;27.57
53932;BME280;39844;52.496;13.482;2022-07-29T11:15:55;101460.41;;;29.43;27.32
53932;BME280;39844;52.496;13.482;2022-07-29T11:18:21;101456.06;;;29.28;27.84
53932;BME280;39844;52.496;13.482;2022-07-29T11:20:48;101453.75;;;29.09;27.70
53932;BME280;39844;52.496;13.482;2022-07-29T11:23:25;101450.22;;;28.69;28.33
53932;BME280;39844;52.496;13.482;2022-07-29T11:26:13;101445.53;;;28.32;29.52
53932;BME280;39844;52.496;13.482;2022-07-29T11:31:19;101454.53;;;28.18;29.40
53932;BME280;39844;52.496;13.482;2022-07-29T11:33:45;101448.88;;;28.36;29.53
53932;BME280;39844;52.496;13.482;2022-07-29T11:36:13;101454.59;;;28.85;29.58
53932;BME280;39844;52.496;13.482;2022-07-29T11:38:39;101446.47;;;29.49;28.89
53932;BME280;39844;52.496;13.482;2022-07-29T11:43:46;101459.56;;;30.17;28.36
53932;BME280;39844;52.496;13.482;2022-07-29T11:46:12;101447.56;;;30.44;28.45
53932;BME280;39844;52.496;13.482;2022-07-29T11:48:41;101441.03;;;30.71;27.09
53932;BME280;39844;52.496;13.482;2022-07-29T11:51:11;101432.66;;;31.08;27.13
53932;BME280;39844;52.496;13.482;2022-07-29T11:53:37;101435.91;;;31.36;26.23
53932;BME280;39844;52.496;13.482;2022-07-29T11:56:03;101430.63;;;31.56;26.82
53932;BME280;39844;52.496;13.482;2022-07-29T11:58:29;101428.53;;;31.71;27.07
53932;BME280;39844;52.496;13.482;2022-07-29T12:00:56;101432.50;;;31.78;27.78
53932;BME280;39844;52.496;13.482;2022-07-29T12:03:26;101424.56;;;31.53;26.61
53932;BME280;39844;52.496;13.482;2022-07-29T12:05:52;101427.66;;;31.37;27.60
53932;BME280;39844;52.496;13.482;2022-07-29T12:08:19;101434.16;;;31.23;27.81
53932;BME280;39844;52.496;13.482;2022-07-29T12:10:48;101424.81;;;31.39;27.78
53932;BME280;39844;52.496;13.482;2022-07-29T12:13:14;101425.19;;;31.89;27.80
53932;BME280;39844;52.496;13.482;2022-07-29T12:15:41;101405.72;;;32.27;27.03
53932;BME280;39844;52.496;13.482;2022-07-29T12:18:14;101414.03;;;32.58;27.07
53932;BME280;39844;52.496;13.482;2022-07-29T12:20:40;101410.69;;;32.86;27.19
53932;BME280;39844;52.496;13.482;2022-07-29T12:23:08;101416.53;;;33.02;26.58
53932;BME280;39844;52.496;13.482;2022-07-29T12:25:34;101407.34;;;33.14;26.94
53932;BME280;39844;52.496;13.482;2022-07-29T12:28:08;101404.34;;;33.17;25.72
53932;BME280;39844;52.496;13.482;2022-07-29T12:30:38;101397.63;;;33.21;24.86
53932;BME280;39844;52.496;13.482;2022-07-29T12:33:21;101402.59;;;33.16;24.85
53932;BME280;39844;52.496;13.482;2022-07-29T12:35:50;101396.16;;;32.96;26.05
53932;BME280;39844;52.496;13.482;2022-07-29T12:38:16;101394.56;;;32.73;28.58
53932;BME280;39844;52.496;13.482;2022-07-29T12:40:43;101396.88;;;32.57;27.84
53932;BME280;39844;52.496;13.482;2022-07-29T12:43:13;101394.63;;;32.19;28.44
53932;BME280;39844;52.496;13.482;2022-07-29T12:45:40;101396.66;;;32.06;27.74
53932;BME280;39844;52.496;13.482;2022-07-29T12:48:06;101387.88;;;32.14;26.70
53932;BME280;39844;52.496;13.482;2022-07-29T12:50:35;101385.16;;;32.45;27.05
53932;BME280;39844;52.496;13.482;2022-07-29T12:53:13;101381.50;;;32.88;27.47
53932;BME280;39844;52.496;13.482;2022-07-29T12:58:08;101381.50;;;32.88;25.59
53932;BME280;39844;52.496;13.482;2022-07-29T13:00:34;101381.31;;;32.59;25.70
53932;BME280;39844;52.496;13.482;2022-07-29T13:03:00;101385.16;;;32.14;25.99
53932;BME280;39844;52.496;13.482;2022-07-29T13:05:45;101384.34;;;31.69;26.19
53932;BME280;39844;52.496;13.482;2022-07-29T13:08:15;101380.66;;;31.70;25.88
53932;BME280;39844;52.496;13.482;2022-07-29T13:10:41;101382.97;;;31.85;27.48
53932;BME280;39844;52.496;13.482;2022-07-29T13:13:12;101370.94;;;32.21;27.45
53932;BME280;39844;52.496;13.482;2022-07-29T13:15:39;101379.97;;;32.42;27.54
53932;BME280;39844;52.496;13.482;2022-07-29T13:18:26;101363.66;;;32.54;28.37
53932;BME280;39844;52.496;13.482;2022-07-29T13:20:51;101372.47;;;32.67;28.06